Hlavní strana
METAR-TAF:

METAR-TAF

Letiště :

Jekatěrinburg, Rusko

zeměpisná šířka: 56-50N, zeměpisná délka: 060-38E, výška: 237 m

Aktuální stav počasí

Zpráva byla vytvořena před 38 minutami, v 04:00 UTC
Severozápadní vítr 8 kt
Teplota -4°C
Vlhkost vzduchu 80%
Tlak 1025 hPa
Viditelnost 10 km a více
Oblačno až skoro zataženo ve výšce 3500 ft
slabé sněžení

METAR: USSS 180400Z 31004MPS 9999 -SN BKN035 M04/M07 Q1025 R26L/290045 R26R/950335 NOSIG RMK QFE748/0997

Čas: 09:38 (04:38 UTC)

Předpověď počasí

Zpráva byla vytvořena před 2 hodinami a 43 minutami, v 01:55 UTC
Předpověď platná od 18 v 03 UTC do 19 v 03 UTC
Severoseverozápadní vítr 10 kt s nárazy do 27 kt
Viditelnost: 3100 m
Oblačno až skoro zataženo ve výšce 1600 ft
slabé sněžení
Od 18 v 0700 UTC
Severní vítr 6 kt s nárazy do 23 kt
Viditelnost: 6000 m
Oblačno až skoro zataženo ve výšce 1600 ft
Polojasno ve výšce 2000 ft, Cumulonimbus.
slabé sněhové přeháňky

TAF: USSS 180155Z 1803/1903 34005G14MPS 3100 -SN BKN016 FM180700 36003G12MPS 6000 -SHSN BKN016 SCT020CB

Stav a předpovědi počasí z více než 4 000 letišť (zprávy METAR a TAF).

Červené a žluté tečky na mapě představují dostupné meteorologické stanice.

Když kurzor umístíte na tečku, zobrazí se název stanice.

Pak kliknutím zobrazíte stav a předpověď počasí.

Chcete-li změnit mapu, kliknutím na zelené tlačítko se znaménkem +mapu přiblížíte, kliknutím na zelené tlačítko se znaménkem – mapu oddálíte a kliknutím na zelené šipky přejdete na sousední mapy.


METAR-TAF: